Terminal Aerodrome Forecast
Issued by NWS

Home | Current Version | Previous Version | Text Only | Print | Product List | Glossary On
Versions: 1 2 3 4 5 6 7 8 9 10 11 12 13
000
FTUS44 KBMX 170537
TAFTOI
TAF
KTOI 170537Z 1706/1806 34012KT 5SM -SN OVC008
      TEMPO 1706/1708 1SM -SN
     FM170900 34012KT 6SM -SN OVC015
     FM171200 34012KT P6SM BKN050
     FM171500 35012KT P6SM SKC=

USA.gov is the U.S. government's official web portal to all federal, state and local government web resources and services.